Time;durP1;ratioP1;P1;durP2;ratioP2;P2;SDS_P1;SDS_P2;PMS_P1;PMS_P2;Temp;Humidity;BMP_temperature;BMP_pressure;BME280_temperature;BME280_humidity;BME280_pressure;Samples;Min_cycle;Max_cycle;Signal;HPM_P1;HPM_P2
2022/01/26 00:07:53;;;;;;;;;36.00;30.75;;;;;2.73;72.52;103194.72;6247919;22;45357;-85
2022/01/26 00:10:24;;;;;;;;;34.50;26.00;;;;;2.78;72.41;103200.22;6256196;22;45171;-87
2022/01/26 00:12:52;;;;;;;;;38.25;34.00;;;;;2.62;72.81;103180.09;6280119;22;45342;-89
2022/01/26 00:15:17;;;;;;;;;41.00;34.75;;;;;2.74;72.17;103193.00;6277635;22;47179;-88
2022/01/26 00:17:45;;;;;;;;;34.25;29.75;;;;;2.78;72.35;103200.22;6282598;22;45349;-92
2022/01/26 00:20:28;;;;;;;;;44.25;33.00;;;;;2.85;72.34;103197.22;6280408;22;45325;-92
2022/01/26 00:26:07;;;;;;;;;46.00;41.75;;;;;2.91;72.81;103197.63;6253399;22;45257;-87
2022/01/26 00:39:31;;;;;;;;;43.75;36.75;;;;;2.78;72.53;103174.19;6292951;22;45432;-86
2022/01/26 00:42:20;;;;;;;;;39.25;32.00;;;;;2.93;72.58;103216.88;6295830;22;45239;-89
2022/01/26 00:44:48;;;;;;;;;38.50;33.00;;;;;2.79;72.63;103176.03;6323591;22;45450;-85
2022/01/26 00:47:16;;;;;;;;;37.50;31.25;;;;;2.92;72.68;103198.56;6318116;22;47866;-88
2022/01/26 00:49:47;;;;;;;;;42.75;37.50;;;;;2.85;72.23;103179.91;6315091;22;45894;-87
2022/01/26 00:52:19;;;;;;;;;40.50;35.75;;;;;2.97;72.34;103204.97;6314624;22;45207;-86
2022/01/26 00:54:47;;;;;;;;;42.75;30.75;;;;;2.99;72.01;103208.56;6312077;22;45345;-87
2022/01/26 00:57:14;;;;;;;;;51.50;35.25;;;;;2.81;72.38;103190.94;6306958;22;45362;-87
2022/01/26 00:59:40;;;;;;;;;38.50;32.50;;;;;2.69;72.15;103171.88;6303245;22;45205;-88
2022/01/26 01:02:05;;;;;;;;;41.50;35.25;;;;;2.84;72.06;103208.44;6281047;22;45452;-88
2022/01/26 01:04:33;;;;;;;;;38.00;34.25;;;;;2.84;72.27;103209.34;6303147;22;45444;-88
2022/01/26 01:07:03;;;;;;;;;35.50;26.00;;;;;2.80;72.28;103201.22;6306136;22;47952;-88
2022/01/26 01:09:33;;;;;;;;;35.25;33.25;;;;;2.60;71.92;103172.19;6330635;22;45226;-87
2022/01/26 01:12:01;;;;;;;;;38.00;32.25;;;;;2.75;72.46;103181.81;6306167;22;45401;-86
2022/01/26 01:14:31;;;;;;;;;38.75;37.00;;;;;2.75;71.98;103185.28;6280656;22;45373;-86
2022/01/26 01:17:01;;;;;;;;;37.00;33.75;;;;;2.71;71.66;103185.91;6306373;22;47879;-88
2022/01/26 01:19:38;;;;;;;;;40.75;31.00;;;;;2.65;71.62;103173.41;6304773;22;45129;-87
2022/01/26 01:32:51;;;;;;;;;34.25;33.00;;;;;2.70;71.71;103180.59;6281842;22;45364;-87
2022/01/26 01:35:21;;;;;;;;;35.75;30.00;;;;;2.87;72.16;103212.16;6304429;22;45878;-88
2022/01/26 01:37:50;;;;;;;;;42.50;37.00;;;;;2.90;71.87;103205.34;6282398;22;46059;-87
2022/01/26 01:40:15;;;;;;;;;53.50;39.75;;;;;2.77;71.93;103182.81;6278645;22;45156;-88
2022/01/26 01:42:45;;;;;;;;;34.00;31.50;;;;;2.80;71.46;103191.72;6331393;22;45251;-87
2022/01/26 01:45:13;;;;;;;;;38.75;36.00;;;;;2.87;71.95;103198.25;6279673;22;45998;-87
2022/01/26 01:47:42;;;;;;;;;40.25;37.75;;;;;2.85;71.82;103200.72;6281339;22;45437;-87
2022/01/26 01:50:12;;;;;;;;;41.75;35.00;;;;;2.86;71.46;103204.22;6305775;22;45248;-86
2022/01/26 01:52:41;;;;;;;;;49.50;37.00;;;;;2.87;71.86;103219.97;6305780;22;45292;-86
2022/01/26 01:55:10;;;;;;;;;38.50;35.00;;;;;2.72;71.74;103199.81;6306423;22;45343;-87
2022/01/26 01:57:37;;;;;;;;;35.50;30.50;;;;;2.85;71.40;103220.66;6280173;22;45259;-87
2022/01/26 02:00:05;;;;;;;;;31.25;24.00;;;;;2.85;71.39;103224.16;6279445;22;45385;-87
2022/01/26 02:02:33;;;;;;;;;44.25;33.25;;;;;2.75;71.46;103216.50;6304236;22;45188;-86
2022/01/26 02:05:03;;;;;;;;;40.75;33.25;;;;;2.62;71.58;103188.78;6279526;22;45313;-87
2022/01/26 02:07:32;;;;;;;;;42.50;39.25;;;;;2.59;71.32;103180.78;6304725;22;45487;-87
2022/01/26 02:10:07;;;;;;;;;;;;;;;;;;;;;
2022/01/26 02:12:39;;;;;;;;;39.50;31.75;;;;;2.83;71.27;103217.03;6278620;22;68750;-87
2022/01/26 02:15:12;;;;;;;;;37.75;33.25;;;;;2.76;71.47;103207.03;6282039;22;45315;-87
2022/01/26 02:20:43;;;;;;;;;38.75;35.00;;;;;2.88;71.09;103213.94;6280794;22;45372;-87
2022/01/26 02:55:49;;;;;;;;;36.25;33.00;;;;;3.30;70.71;103211.50;6291308;22;44625;-87
2022/01/26 03:03:39;;;;;;;;;36.75;35.25;;;;;3.30;70.71;103193.28;6282183;22;44572;-88
2022/01/26 03:06:13;;;;;;;;;29.25;27.25;;;;;3.31;70.24;103184.66;6283204;22;45176;-88
2022/01/26 03:08:49;;;;;;;;;46.25;37.75;;;;;3.35;70.09;103186.69;6282215;22;45290;-87
2022/01/26 03:11:15;;;;;;;;;40.50;32.75;;;;;3.36;70.47;103171.97;6281740;22;45413;-87
2022/01/26 03:13:49;;;;;;;;;36.50;33.25;;;;;3.46;70.63;103192.59;6282801;22;45383;-86
2022/01/26 03:16:22;;;;;;;;;42.75;37.75;;;;;3.43;70.15;103195.00;6307759;22;45236;-86
2022/01/26 03:19:17;;;;;;;;;38.50;34.00;;;;;3.29;70.55;103166.38;6307116;22;45134;-86
2022/01/26 03:32:57;;;;;;;;;47.25;35.50;;;;;3.57;70.52;103181.16;6283401;22;46021;-87
2022/01/26 03:36:11;;;;;;;;;36.25;34.00;;;;;3.47;70.49;103156.22;6334002;22;45368;-86
2022/01/26 03:38:27;;;;;;;;;42.75;36.75;;;;;3.40;70.45;103138.41;6281728;22;45129;-89
2022/01/26 03:41:16;;;;;;;;;43.00;38.25;;;;;3.43;69.90;103142.91;6308198;22;45639;-88
2022/01/26 03:43:42;;;;;;;;;43.00;38.50;;;;;3.53;69.59;103173.97;6306522;22;47598;-86
2022/01/26 03:46:08;;;;;;;;;31.50;25.25;;;;;3.42;69.97;103157.66;6284195;22;45157;-87
2022/01/26 03:48:38;;;;;;;;;37.25;31.75;;;;;3.51;69.86;103176.47;6307050;22;45180;-87
2022/01/26 03:51:04;;;;;;;;;42.25;35.50;;;;;3.53;69.90;103176.56;6308624;22;45165;-89
2022/01/26 03:53:39;;;;;;;;;43.75;39.50;;;;;3.51;69.92;103168.66;6279750;22;46800;-88
2022/01/26 03:56:07;;;;;;;;;47.25;37.50;;;;;3.60;69.68;103183.94;6334116;22;45642;-89
2022/01/26 03:58:33;;;;;;;;;47.50;37.25;;;;;3.69;69.69;103194.09;6333407;22;45346;-88
2022/01/26 04:01:00;;;;;;;;;50.75;39.50;;;;;3.72;69.49;103194.28;6308334;22;45207;-88
2022/01/26 04:03:30;;;;;;;;;47.50;36.50;;;;;3.71;69.71;103182.03;6306374;22;47573;-88
2022/01/26 04:05:58;;;;;;;;;42.50;33.25;;;;;3.57;69.39;103165.53;6308288;22;45208;-89
2022/01/26 04:08:29;;;;;;;;;52.00;41.25;;;;;3.70;69.43;103194.16;6282462;22;45238;-89
2022/01/26 04:13:36;;;;;;;;;40.50;37.00;;;;;3.73;69.43;103183.03;6281989;22;45191;-88
2022/01/26 04:16:07;;;;;;;;;55.75;41.25;;;;;3.60;69.49;103160.50;6333407;22;45247;-87
2022/01/26 04:18:36;;;;;;;;;43.75;36.25;;;;;3.72;69.74;103170.81;6305979;22;45167;-88
2022/01/26 04:21:15;;;;;;;;;49.50;37.25;;;;;3.50;69.67;103133.00;6284149;22;44716;-87
2022/01/26 04:26:06;;;;;;;;;39.25;37.50;;;;;3.70;69.55;103156.78;6284341;22;45157;-88
2022/01/26 04:28:44;;;;;;;;;42.75;39.00;;;;;3.77;69.48;103166.81;6281013;22;45188;-88
2022/01/26 04:31:11;;;;;;;;;46.25;41.00;;;;;3.72;69.38;103153.47;6285516;22;44729;-88
2022/01/26 04:33:37;;;;;;;;;45.00;39.00;;;;;3.69;69.05;103142.88;6306092;22;46404;-89
2022/01/26 04:36:07;;;;;;;;;47.75;39.25;;;;;3.91;68.83;103180.69;6308587;22;45624;-89
2022/01/26 04:38:46;;;;;;;;;43.00;35.50;;;;;3.89;69.03;103172.78;6309040;22;45205;-88
2022/01/26 04:41:30;;;;;;;;;52.75;42.25;;;;;3.72;69.22;103135.25;6308969;22;45721;-89
2022/01/26 04:44:06;;;;;;;;;44.75;38.75;;;;;3.81;68.83;103145.34;6332779;22;47210;-87
2022/01/26 04:46:31;;;;;;;;;52.00;40.75;;;;;3.89;68.74;103153.63;6308025;22;45349;-87
2022/01/26 04:49:00;;;;;;;;;45.75;38.25;;;;;4.01;68.52;103169.13;6333346;22;45343;-88
2022/01/26 04:51:39;;;;;;;;;51.25;42.25;;;;;3.94;68.31;103167.88;6309204;22;45366;-87
2022/01/26 04:54:07;;;;;;;;;57.00;41.75;;;;;3.85;68.85;103157.78;6308167;22;47477;-89
2022/01/26 04:56:33;;;;;;;;;56.75;42.25;;;;;3.93;68.50;103168.69;6308812;22;45215;-88
2022/01/26 04:58:58;;;;;;;;;59.25;44.75;;;;;3.76;68.82;103137.22;6308587;22;45671;-87
2022/01/26 05:01:26;;;;;;;;;57.50;43.50;;;;;3.81;69.21;103141.84;6283059;22;45690;-87
2022/01/26 05:03:51;;;;;;;;;51.50;40.00;;;;;3.95;69.14;103178.34;6283456;22;46406;-88
2022/01/26 05:06:17;;;;;;;;;42.25;32.75;;;;;3.82;69.02;103159.25;6309406;22;44618;-87
2022/01/26 05:08:42;;;;;;;;;44.50;36.00;;;;;3.93;68.93;103172.19;6283851;22;45150;-86
2022/01/26 05:11:12;;;;;;;;;45.50;40.25;;;;;3.95;69.07;103165.31;6285663;22;45174;-89
2022/01/26 05:13:39;;;;;;;;;49.75;42.25;;;;;3.86;69.00;103154.34;6308172;22;47002;-87
2022/01/26 05:16:09;;;;;;;;;54.50;43.75;;;;;3.89;68.49;103162.34;6318021;22;45377;-87
2022/01/26 05:18:37;;;;;;;;;59.00;45.50;;;;;3.97;68.83;103174.16;6300204;22;44585;-86
2022/01/26 05:21:05;;;;;;;;;57.00;43.00;;;;;3.95;68.62;103172.25;6323060;22;44850;-87
2022/01/26 05:23:30;;;;;;;;;56.50;42.50;;;;;3.87;68.75;103157.84;6292937;22;45396;-87
2022/01/26 05:25:59;;;;;;;;;44.50;39.50;;;;;3.79;68.66;103136.53;6285127;22;45195;-86
2022/01/26 05:28:26;;;;;;;;;49.50;42.25;;;;;3.77;68.86;103132.94;6283934;22;45544;-88
2022/01/26 05:30:54;;;;;;;;;60.75;44.00;;;;;3.83;68.73;103138.53;6308819;22;45421;-88
2022/01/26 05:33:27;;;;;;;;;60.50;43.25;;;;;3.98;68.77;103167.22;6281022;22;48098;-88
2022/01/26 05:35:55;;;;;;;;;59.25;45.75;;;;;4.00;68.66;103154.31;6284165;22;45391;-88
2022/01/26 05:38:23;;;;;;;;;52.50;43.25;;;;;4.03;68.10;103151.88;6307087;22;45323;-88
2022/01/26 05:40:50;;;;;;;;;56.25;44.25;;;;;3.94;67.92;103136.59;6284321;22;45239;-88
2022/01/26 05:43:20;;;;;;;;;54.25;43.00;;;;;3.95;68.17;103140.97;6333963;22;46787;-88
2022/01/26 05:45:54;;;;;;;;;57.25;44.00;;;;;3.92;68.36;103151.22;6335189;22;45411;-87
2022/01/26 05:48:25;;;;;;;;;55.00;43.25;;;;;3.93;68.42;103153.94;6308941;22;45306;-88
2022/01/26 05:51:05;;;;;;;;;62.00;48.00;;;;;4.04;68.13;103161.53;6311429;22;45555;-89
2022/01/26 05:53:39;;;;;;;;;65.00;47.75;;;;;3.97;68.35;103136.78;6309290;22;46749;-87
2022/01/26 05:56:08;;;;;;;;;61.25;46.75;;;;;3.94;68.75;103142.69;6320537;22;45467;-87
2022/01/26 05:58:36;;;;;;;;;64.00;48.50;;;;;3.88;67.81;103124.09;6347429;22;44607;-87
2022/01/26 06:01:05;;;;;;;;;69.00;49.75;;;;;4.10;68.23;103167.09;6309863;22;45464;-89
2022/01/26 06:03:33;;;;;;;;;65.50;48.50;;;;;3.89;68.11;103127.59;6281805;22;45230;-88
2022/01/26 06:06:01;;;;;;;;;61.25;46.00;;;;;3.90;68.08;103132.91;6283709;22;45354;-88
2022/01/26 06:08:34;;;;;;;;;69.75;50.50;;;;;3.97;68.00;103134.16;6306183;22;45306;-88
2022/01/26 06:11:04;;;;;;;;;57.25;44.75;;;;;3.92;67.98;103120.84;6309499;22;45219;-88
2022/01/26 06:13:32;;;;;;;;;66.75;50.25;;;;;4.01;67.48;103140.47;6283514;22;45244;-88
2022/01/26 06:16:07;;;;;;;;;41.50;38.75;;;;;4.11;67.58;103174.09;6308118;22;45274;-88
2022/01/26 06:18:32;;;;;;;;;62.00;45.00;;;;;3.89;67.42;103138.91;6331844;22;45149;-88
2022/01/26 06:21:06;;;;;;;;;59.00;46.75;;;;;3.95;67.51;103159.22;6307402;22;45467;-88
2022/01/26 06:23:33;;;;;;;;;64.75;50.25;;;;;4.04;67.75;103179.78;6282553;22;45190;-88
2022/01/26 06:26:01;;;;;;;;;59.75;47.50;;;;;4.00;67.31;103172.56;6283659;22;45247;-87
2022/01/26 06:28:27;;;;;;;;;63.75;45.50;;;;;3.99;67.33;103179.47;6280493;22;45240;-87
2022/01/26 06:31:00;;;;;;;;;65.00;49.50;;;;;4.06;67.59;103194.66;6306350;22;45544;-87
2022/01/26 06:33:27;;;;;;;;;66.25;44.50;;;;;3.97;67.36;103181.97;6304253;22;47676;-87
2022/01/26 06:35:57;;;;;;;;;61.75;50.00;;;;;4.08;67.34;103200.00;6282506;22;45339;-88
2022/01/26 06:38:27;;;;;;;;;61.50;48.50;;;;;3.96;67.47;103193.22;6281462;22;45224;-87
2022/01/26 06:40:54;;;;;;;;;65.25;48.25;;;;;4.06;67.43;103212.03;6282678;22;45313;-88
2022/01/26 06:43:21;;;;;;;;;68.75;51.00;;;;;4.01;67.38;103214.34;6305405;22;48293;-87
2022/01/26 06:45:58;;;;;;;;;58.50;47.75;;;;;3.93;67.19;103202.56;6308198;22;45452;-86
2022/01/26 06:50:54;;;;;;;;;65.00;49.50;;;;;4.00;67.72;103228.19;6282520;22;45424;-88
2022/01/26 06:53:27;;;;;;;;;65.25;50.75;;;;;3.98;67.74;103219.34;6332083;22;48153;-89
2022/01/26 06:55:52;;;;;;;;;65.25;48.00;;;;;4.05;67.23;103229.38;6308204;22;45248;-90
2022/01/26 06:58:28;;;;;;;;;64.75;49.00;;;;;3.90;67.18;103203.25;6307900;22;45461;-90
2022/01/26 07:00:57;;;;;;;;;55.75;45.00;;;;;3.88;67.47;103201.34;6305836;22;45778;-87
2022/01/26 07:03:25;;;;;;;;;59.75;48.75;;;;;3.85;67.23;103190.72;6306702;22;46946;-90
2022/01/26 07:05:53;;;;;;;;;65.00;49.75;;;;;3.97;67.32;103207.13;6291219;22;44719;-88
2022/01/26 07:08:18;;;;;;;;;67.25;53.25;;;;;4.01;67.57;103216.97;6284304;22;45279;-89
2022/01/26 07:10:48;;;;;;;;;67.25;53.50;;;;;4.03;67.19;103212.72;6281115;22;45385;-89
2022/01/26 07:13:14;;;;;;;;;72.00;55.50;;;;;4.03;67.65;103210.13;6283337;22;45368;-89
2022/01/26 07:21:26;;;;;;;;;62.50;50.75;;;;;4.19;67.33;103206.75;6285523;22;45135;-89
2022/01/26 07:23:59;;;;;;;;;69.50;53.00;;;;;4.16;67.11;103198.75;6310941;22;46928;-90
2022/01/26 07:26:32;;;;;;;;;64.00;51.25;;;;;4.08;67.42;103189.56;6305395;22;45679;-91
2022/01/26 07:29:10;;;;;;;;;66.25;50.75;;;;;4.15;67.59;103196.97;6304818;22;45400;-91
2022/01/26 07:31:42;;;;;;;;;67.25;50.50;;;;;4.29;67.78;103216.97;6309987;22;44767;-89
2022/01/26 07:34:20;;;;;;;;;65.25;47.50;;;;;4.32;67.16;103217.16;6304208;22;47237;-89
2022/01/26 07:36:47;;;;;;;;;66.50;50.00;;;;;4.38;66.76;103225.38;6306596;22;45683;-90
2022/01/26 07:39:17;;;;;;;;;68.25;52.75;;;;;4.36;66.71;103216.56;6306645;22;45278;-89
2022/01/26 07:41:51;;;;;;;;;62.75;49.50;;;;;4.20;67.10;103191.22;6304909;22;45349;-90
2022/01/26 07:44:17;;;;;;;;;64.50;50.25;;;;;4.39;66.91;103213.22;6308301;22;47141;-90
2022/01/26 07:46:49;;;;;;;;;72.00;52.50;;;;;4.31;66.89;103201.44;6305069;22;45317;-89
2022/01/26 07:49:17;;;;;;;;;72.50;52.75;;;;;4.34;67.01;103205.13;6305727;22;45195;-89
2022/01/26 07:51:48;;;;;;;;;68.00;53.25;;;;;4.30;66.94;103197.91;6306267;22;45414;-89
2022/01/26 07:54:18;;;;;;;;;67.75;51.50;;;;;4.46;66.84;103225.81;6302887;22;45512;-86
2022/01/26 07:56:45;;;;;;;;;73.00;54.75;;;;;4.44;66.53;103237.88;6301861;22;45245;-85
2022/01/26 07:59:13;;;;;;;;;65.75;50.75;;;;;4.42;66.44;103227.34;6276720;22;45263;-87
2022/01/26 08:01:43;;;;;;;;;60.00;45.50;;;;;4.56;66.69;103256.88;6276942;22;45239;-85
2022/01/26 08:04:09;;;;;;;;;61.75;45.50;;;;;4.40;66.15;103223.75;6278506;22;46234;-85
2022/01/26 08:06:37;;;;;;;;;64.00;50.00;;;;;4.50;66.78;103219.09;6277761;22;45530;-85
2022/01/26 08:09:05;;;;;;;;;58.75;46.00;;;;;4.50;67.11;103191.31;6302874;22;45224;-88
2022/01/26 08:11:33;;;;;;;;;65.25;52.50;;;;;4.67;67.05;103215.78;6279218;22;45167;-88
2022/01/26 08:14:04;;;;;;;;;66.50;51.25;;;;;4.53;66.74;103188.88;6329891;22;47001;-88
2022/01/26 08:16:34;;;;;;;;;65.25;51.25;;;;;4.50;66.54;103187.81;6328794;22;45599;-87
2022/01/26 08:19:07;;;;;;;;;67.75;50.00;;;;;4.78;66.66;103209.50;6279715;22;45310;-86
2022/01/26 08:21:32;;;;;;;;;68.25;52.25;;;;;4.72;66.13;103177.84;6277431;22;45389;-86
2022/01/26 08:24:12;;;;;;;;;61.50;46.50;;;;;4.73;66.50;103171.81;6277501;22;46168;-87
2022/01/26 08:26:48;;;;;;;;;62.25;48.50;;;;;4.88;66.07;103195.31;6301367;22;45600;-87
2022/01/26 08:29:24;;;;;;;;;64.50;51.25;;;;;4.81;65.88;103187.91;6278252;22;45254;-87
2022/01/26 08:31:49;;;;;;;;;63.00;50.75;;;;;4.88;66.32;103183.97;6303463;22;45428;-86
2022/01/26 08:34:17;;;;;;;;;63.00;45.50;;;;;5.08;65.76;103204.31;6278785;22;45132;-88
2022/01/26 08:36:45;;;;;;;;;62.75;49.25;;;;;4.85;65.88;103156.88;6305154;22;45314;-88
2022/01/26 08:39:10;;;;;;;;;62.50;48.50;;;;;4.98;65.50;103183.69;6279567;22;45315;-87
2022/01/26 08:41:42;;;;;;;;;63.50;46.00;;;;;5.03;65.36;103211.88;6303148;22;45203;-84
2022/01/26 08:44:07;;;;;;;;;61.00;46.00;;;;;5.05;65.60;103218.09;6305419;22;47039;-87
2022/01/26 08:46:36;;;;;;;;;60.50;46.00;;;;;4.91;65.70;103199.81;6282336;22;45302;-92
2022/01/26 08:49:07;;;;;;;;;64.00;47.00;;;;;4.97;65.42;103208.91;6310992;22;44707;-91
2022/01/26 08:51:36;;;;;;;;;59.25;46.00;;;;;4.93;65.22;103222.56;6308468;22;45495;-89
2022/01/26 08:54:02;;;;;;;;;53.75;42.00;;;;;5.00;65.34;103226.47;6317257;22;48148;-88
2022/01/26 08:56:28;;;;;;;;;43.25;36.50;;;;;5.03;65.35;103226.66;6349355;22;44630;-90
2022/01/26 08:58:54;;;;;;;;;59.00;44.50;;;;;5.11;65.21;103241.03;6326049;22;44653;-91
2022/01/26 09:01:21;;;;;;;;;47.00;41.00;;;;;5.11;65.31;103242.75;6306328;22;45187;-89
2022/01/26 09:03:52;;;;;;;;;54.75;43.00;;;;;5.07;65.55;103228.59;6313361;22;45407;-88
2022/01/26 09:06:19;;;;;;;;;60.50;42.50;;;;;5.05;65.52;103225.00;6285179;22;45280;-84
2022/01/26 09:08:50;;;;;;;;;59.75;45.75;;;;;5.14;65.02;103242.94;6309602;22;45237;-87
2022/01/26 09:11:22;;;;;;;;;62.25;45.75;;;;;5.04;65.27;103236.25;6301998;22;45637;-87
2022/01/26 09:13:57;;;;;;;;;63.00;48.50;;;;;4.98;64.92;103226.38;6280790;22;46326;-87
2022/01/26 09:16:30;;;;;;;;;65.00;46.25;;;;;5.04;65.28;103237.16;6280122;22;45311;-90
2022/01/26 09:19:02;;;;;;;;;64.25;49.25;;;;;5.07;64.83;103252.09;6281489;22;45279;-86
2022/01/26 09:21:35;;;;;;;;;57.50;48.50;;;;;5.03;65.32;103253.66;6300711;22;45329;-88
2022/01/26 09:24:08;;;;;;;;;60.75;46.75;;;;;4.96;65.14;103240.13;6302861;22;46915;-88
2022/01/26 09:26:39;;;;;;;;;56.50;44.00;;;;;5.14;64.94;103264.72;6274818;22;45865;-90
2022/01/26 09:29:09;;;;;;;;;58.25;43.75;;;;;5.06;65.13;103253.81;6303150;22;45547;-89
2022/01/26 09:31:37;;;;;;;;;50.50;42.25;;;;;5.06;66.24;103265.97;6276993;22;45582;-89
2022/01/26 09:34:05;;;;;;;;;57.25;43.00;;;;;5.15;66.60;103256.06;6301318;22;47214;-90
2022/01/26 09:36:33;;;;;;;;;58.25;45.25;;;;;5.32;66.41;103264.91;6303649;22;45295;-87
2022/01/26 09:39:03;;;;;;;;;50.25;41.25;;;;;5.35;65.91;103267.69;6303488;22;45275;-86
2022/01/26 09:42:08;;;;;;;;;48.25;38.75;;;;;5.40;65.79;103268.88;6305606;22;45333;-88
2022/01/26 09:44:36;;;;;;;;;59.25;44.00;;;;;5.43;65.94;103281.22;6302193;22;46136;-89
2022/01/26 09:47:05;;;;;;;;;59.00;43.75;;;;;5.41;65.20;103278.50;6302777;22;45263;-85
2022/01/26 09:49:35;;;;;;;;;59.25;48.00;;;;;5.40;65.34;103291.44;6301213;22;45469;-88
2022/01/26 09:52:07;;;;;;;;;61.75;48.00;;;;;5.39;65.41;103287.06;6278885;22;44774;-86
2022/01/26 09:54:38;;;;;;;;;56.50;45.50;;;;;5.36;65.35;103279.03;6327060;22;47272;-85
2022/01/26 09:57:08;;;;;;;;;61.25;45.25;;;;;5.28;65.48;103274.25;6278372;22;45444;-86
2022/01/26 09:59:37;;;;;;;;;63.00;46.50;;;;;5.38;65.48;103290.50;6277149;22;45538;-84
2022/01/26 10:02:05;;;;;;;;;58.50;44.50;;;;;5.43;64.96;103300.41;6277978;22;45311;-81
2022/01/26 10:04:38;;;;;;;;;61.00;44.75;;;;;5.37;65.48;103273.00;6274708;22;47159;-84
2022/01/26 10:07:42;;;;;;;;;64.25;50.00;;;;;5.45;65.02;103284.78;6299674;22;45381;-86
2022/01/26 10:18:40;;;;;;;;;62.25;48.25;;;;;5.52;64.82;103289.56;6276505;22;45463;-81
2022/01/26 10:21:09;;;;;;;;;55.75;41.50;;;;;5.42;64.76;103262.00;6275789;22;45430;-83
2022/01/26 10:23:38;;;;;;;;;59.25;44.50;;;;;5.43;64.72;103273.38;6275215;22;45463;-82
2022/01/26 10:26:18;;;;;;;;;63.25;48.00;;;;;5.49;64.71;103274.63;6273731;22;47534;-83
2022/01/26 10:28:58;;;;;;;;;61.25;48.25;;;;;5.61;64.98;103284.88;6276704;22;45600;-82
2022/01/26 10:31:27;;;;;;;;;56.00;44.75;;;;;5.60;64.60;103266.50;6277205;22;45206;-83
2022/01/26 10:34:02;;;;;;;;;60.25;46.50;;;;;5.60;64.94;103264.78;6299140;22;45682;-83
2022/01/26 10:36:50;;;;;;;;;62.50;47.00;;;;;5.51;64.90;103252.09;6277554;22;45207;-84
2022/01/26 10:39:32;;;;;;;;;60.75;47.75;;;;;5.62;65.05;103289.28;6273468;22;45375;-84
2022/01/26 10:42:09;;;;;;;;;64.50;50.75;;;;;5.60;64.81;103288.31;6301384;22;45481;-83
2022/01/26 10:45:07;;;;;;;;;66.00;49.25;;;;;5.50;64.86;103265.94;6300877;22;45452;-85
2022/01/26 10:47:46;;;;;;;;;61.25;47.25;;;;;5.64;64.61;103277.22;6302330;22;47602;-83
2022/01/26 10:50:45;;;;;;;;;65.25;50.75;;;;;5.68;64.86;103273.97;6274846;22;45311;-84
2022/01/26 10:53:20;;;;;;;;;52.50;42.50;;;;;5.46;64.98;103250.94;6274345;22;45346;-82
2022/01/26 10:55:48;;;;;;;;;73.00;52.50;;;;;5.55;64.86;103249.66;6276899;22;45272;-84
2022/01/26 10:58:17;;;;;;;;;59.00;47.00;;;;;5.62;64.76;103247.50;6277560;22;47165;-82
2022/01/26 11:00:43;;;;;;;;;59.00;45.00;;;;;5.48;64.84;103231.03;6274818;22;45415;-82
2022/01/26 11:03:09;;;;;;;;;61.25;49.00;;;;;5.67;65.09;103266.94;6278620;22;45649;-84
2022/01/26 11:05:39;;;;;;;;;55.50;40.75;;;;;5.61;65.07;103250.00;6276799;22;45364;-84
2022/01/26 11:08:11;;;;;;;;;57.25;46.50;;;;;5.55;64.76;103218.31;6303304;22;47201;-84
2022/01/26 11:10:38;;;;;;;;;53.25;44.25;;;;;5.59;65.01;103225.53;6275163;22;45181;-86
2022/01/26 11:13:08;;;;;;;;;67.50;49.25;;;;;5.59;64.96;103217.69;6302490;22;45239;-84
2022/01/26 11:15:39;;;;;;;;;63.50;48.50;;;;;5.70;64.98;103240.97;6300444;22;45419;-84
2022/01/26 11:18:28;;;;;;;;;58.50;43.75;;;;;5.75;64.58;103239.53;6300882;22;47751;-84
2022/01/26 11:20:54;;;;;;;;;54.50;42.00;;;;;5.72;64.49;103225.38;6305471;22;45327;-83
2022/01/26 11:23:37;;;;;;;;;60.50;46.50;;;;;5.80;65.12;103224.13;6278444;22;45418;-83
2022/01/26 11:26:05;;;;;;;;;59.75;46.25;;;;;5.78;64.64;103211.78;6278810;22;45413;-83
2022/01/26 11:28:30;;;;;;;;;51.75;44.75;;;;;5.72;64.60;103213.22;6303243;22;47178;-85
2022/01/26 11:31:02;;;;;;;;;55.75;44.25;;;;;5.77;64.96;103215.19;6275385;22;45226;-85
2022/01/26 11:33:36;;;;;;;;;56.25;43.50;;;;;5.90;64.72;103230.72;6302512;22;45339;-87
2022/01/26 11:36:32;;;;;;;;;58.00;44.75;;;;;5.85;64.59;103214.78;6300053;22;45506;-85
2022/01/26 11:47:32;;;;;;;;;;;;;;;;;;;;;
2022/01/26 11:50:47;;;;;;;;;57.50;46.25;;;;;6.04;64.66;103213.22;6274486;22;73741;-83
2022/01/26 11:53:24;;;;;;;;;61.75;45.75;;;;;6.01;64.56;103205.22;6245810;22;45456;-85
2022/01/26 11:56:02;;;;;;;;;;;;;;;;;;;;;
2022/01/26 11:58:37;;;;;;;;;60.00;44.75;;;;;5.79;64.71;103170.03;6266894;22;73020;-83
2022/01/26 12:16:43;;;;;;;;;52.00;41.25;;;;;6.10;64.56;103188.31;6261450;22;46370;-81
2022/01/26 12:38:20;;;;;;;;;64.50;48.50;;;;;6.03;64.74;103167.88;6339139;22;45400;-84
2022/01/26 12:43:58;;;;;;;;;63.25;49.00;;;;;6.12;64.94;103196.22;6347889;22;45585;-87
2022/01/26 12:47:19;;;;;;;;;;;;;;;;;;;;;
2022/01/26 12:49:48;;;;;;;;;64.75;48.75;;;;;5.96;64.58;103165.75;6324463;22;74757;-85
2022/01/26 12:52:16;;;;;;;;;67.00;52.75;;;;;6.08;64.79;103187.34;6318039;22;45329;-87
2022/01/26 12:54:50;;;;;;;;;66.00;47.25;;;;;6.12;65.21;103189.31;6316132;22;45222;-87
2022/01/26 12:57:24;;;;;;;;;64.75;50.00;;;;;6.05;64.79;103165.34;6319590;22;45629;-86
2022/01/26 13:00:15;;;;;;;;;61.50;47.75;;;;;6.13;64.89;103182.34;6313439;22;47668;-85
2022/01/26 13:02:41;;;;;;;;;64.00;49.25;;;;;6.08;64.67;103174.25;6315285;22;45354;-87
2022/01/26 13:08:42;;;;;;;;;61.00;45.75;;;;;6.08;65.04;103165.53;6343234;22;45486;-90
2022/01/26 13:11:15;;;;;;;;;65.25;49.00;;;;;5.97;64.92;103130.94;6346383;22;46275;-90
2022/01/26 13:13:46;;;;;;;;;69.00;50.50;;;;;6.02;64.97;103149.50;6317921;22;45909;-85
2022/01/26 13:16:27;;;;;;;;;63.50;50.75;;;;;6.09;64.98;103168.19;6323593;22;45368;-91
2022/01/26 13:26:51;;;;;;;;;63.00;51.50;;;;;6.07;65.18;103166.34;6159889;23;45526;-89
2022/01/26 13:29:44;;;;;;;;;74.25;56.00;;;;;6.08;65.46;103173.38;6189248;22;45452;-87
2022/01/26 13:41:18;;;;;;;;;64.75;49.75;;;;;5.99;65.17;103157.16;6352058;22;45418;-89
2022/01/26 13:58:44;;;;;;;;;59.50;45.25;;;;;5.95;65.43;103163.94;6340405;22;45907;-87
2022/01/26 14:01:21;;;;;;;;;63.25;47.50;;;;;5.93;65.00;103161.28;6315526;22;45395;-87
2022/01/26 14:03:57;;;;;;;;;56.50;44.75;;;;;5.93;65.53;103156.03;6342818;22;45588;-85
2022/01/26 14:06:24;;;;;;;;;49.00;40.75;;;;;5.77;65.49;103121.09;6315059;22;45572;-86
2022/01/26 14:08:56;;;;;;;;;58.50;44.25;;;;;5.96;65.44;103157.88;6310012;22;47169;-86
2022/01/26 14:15:08;;;;;;;;;55.25;39.75;;;;;5.86;65.47;103113.75;6325429;22;45478;-86
2022/01/26 14:17:57;;;;;;;;;49.75;39.75;;;;;6.03;65.14;103139.13;6339795;22;45712;-89
2022/01/26 14:23:43;;;;;;;;;56.25;41.75;;;;;5.99;65.24;103137.16;6343055;22;45246;-87
2022/01/26 14:26:12;;;;;;;;;57.75;42.25;;;;;5.99;65.12;103128.41;6346152;22;45394;-86
2022/01/26 14:28:37;;;;;;;;;46.50;39.25;;;;;6.05;64.83;103137.50;6308719;22;45350;-88
2022/01/26 14:34:44;;;;;;;;;48.25;38.50;;;;;5.84;64.74;103105.81;6341822;22;45460;-88
2022/01/26 14:53:58;;;;;;;;;40.75;35.50;;;;;6.08;65.04;103136.75;6339213;22;45350;-89
2022/01/26 15:33:13;;;;;;;;;45.00;40.50;;;;;6.02;64.84;103139.06;6342642;22;45363;-89
2022/01/26 15:48:40;;;;;;;;;45.75;39.75;;;;;5.87;64.83;103108.59;6240935;22;45487;-87
2022/01/26 15:53:19;;;;;;;;;50.25;40.00;;;;;5.91;64.58;103130.59;6345942;22;45724;-88
2022/01/26 16:07:37;;;;;;;;;;;;;;;;;;;;;
2022/01/26 16:21:12;;;;;;;;;57.00;45.75;;;;;5.71;65.08;103098.13;6346222;22;45368;-89
2022/01/26 16:27:18;;;;;;;;;50.25;39.75;;;;;5.73;65.15;103106.97;6206584;22;45649;-92
2022/01/26 18:50:13;;;;;;;;;57.50;45.00;;;;;5.49;66.51;103180.56;6343494;22;45357;-88
2022/01/26 18:52:38;;;;;;;;;67.75;48.00;;;;;5.51;66.80;103178.94;6340782;22;47192;-91
2022/01/26 18:55:15;;;;;;;;;60.50;48.25;;;;;5.51;66.72;103193.72;6316840;22;45593;-88
2022/01/26 18:58:21;;;;;;;;;59.50;43.75;;;;;5.46;66.46;103182.13;6315537;22;45353;-87